Time;durP1;ratioP1;P1;durP2;ratioP2;P2;SDS_P1;SDS_P2;PMS_P1;PMS_P2;Temp;Humidity;BMP_temperature;BMP_pressure;BME280_temperature;BME280_humidity;BME280_pressure;Samples;Min_cycle;Max_cycle;Signal;HPM_P1;HPM_P2
2023/08/23 00:00:49;;;;;;;4.22;3.80;;;17.10;99.90;;;;;;5014741;28;20193;-81
2023/08/23 00:03:15;;;;;;;4.63;4.07;;;17.20;99.90;;;;;;5015071;28;20714;-80
2023/08/23 00:05:43;;;;;;;5.22;3.20;;;17.40;99.90;;;;;;5014859;28;20688;-80
2023/08/23 00:08:08;;;;;;;5.03;3.63;;;17.10;99.90;;;;;;5014734;28;20621;-79
2023/08/23 00:10:34;;;;;;;3.85;3.47;;;17.70;99.90;;;;;;5014676;28;20171;-81
2023/08/23 00:12:59;;;;;;;3.85;3.40;;;19.10;99.90;;;;;;5032375;28;20182;-80
2023/08/23 00:15:25;;;;;;;3.88;3.40;;;17.60;99.90;;;;;;5032241;28;20171;-81
2023/08/23 00:17:51;;;;;;;3.35;3.05;;;17.10;99.90;;;;;;5014775;28;20203;-80
2023/08/23 00:20:16;;;;;;;4.88;3.78;;;16.90;99.90;;;;;;5032611;28;20291;-80
2023/08/23 00:22:42;;;;;;;5.75;3.22;;;17.10;99.90;;;;;;5032595;28;20255;-80
2023/08/23 00:25:08;;;;;;;4.07;3.65;;;16.90;99.90;;;;;;5032026;28;20195;-79
2023/08/23 00:27:34;;;;;;;3.92;3.35;;;17.00;99.90;;;;;;5032300;28;20250;-79
2023/08/23 00:29:59;;;;;;;5.18;3.50;;;17.20;99.90;;;;;;5015253;28;20202;-80
2023/08/23 00:32:25;;;;;;;3.40;3.08;;;16.90;99.90;;;;;;5032824;28;20174;-80
2023/08/23 00:34:50;;;;;;;3.85;3.22;;;16.70;99.90;;;;;;5032430;28;20305;-80
2023/08/23 00:37:16;;;;;;;3.90;3.30;;;17.20;99.90;;;;;;5032573;28;20198;-82
2023/08/23 00:39:42;;;;;;;4.35;3.53;;;16.90;99.90;;;;;;5032079;28;20273;-79
2023/08/23 00:42:07;;;;;;;4.75;3.80;;;16.80;99.90;;;;;;5015370;28;20653;-79
2023/08/23 00:44:33;;;;;;;5.40;3.35;;;16.80;99.90;;;;;;5035918;28;20696;-80
2023/08/23 00:46:59;;;;;;;5.53;3.83;;;16.90;99.90;;;;;;5036019;28;20175;-80
2023/08/23 00:49:25;;;;;;;6.70;3.80;;;16.80;99.90;;;;;;5017919;28;20206;-81
2023/08/23 00:51:51;;;;;;;7.43;3.70;;;16.80;99.90;;;;;;5035621;28;20257;-80
2023/08/23 00:54:17;;;;;;;3.90;3.22;;;17.20;95.30;;;;;;5035416;28;20258;-81
2023/08/23 00:56:43;;;;;;;4.65;3.80;;;16.70;99.90;;;;;;5017477;28;20186;-80
2023/08/23 00:59:09;;;;;;;5.05;3.75;;;16.70;99.90;;;;;;5035260;28;20199;-80
2023/08/23 01:01:35;;;;;;;3.97;3.35;;;16.70;99.90;;;;;;5017669;28;20222;-79
2023/08/23 01:04:01;;;;;;;5.25;3.63;;;16.70;99.90;;;;;;5017382;28;20209;-80
2023/08/23 01:06:50;;;;;;;4.85;3.50;;;16.70;99.90;;;;;;5035463;28;20179;-80
2023/08/23 01:09:24;;;;;;;3.50;3.20;;;16.70;99.90;;;;;;5017469;28;20202;-80
2023/08/23 01:12:16;;;;;;;4.03;3.65;;;16.50;99.90;;;;;;5017666;28;20552;-79
2023/08/23 01:15:07;;;;;;;3.92;3.40;;;16.70;99.90;;;;;;4988578;28;20604;-78
2023/08/23 01:17:36;;;;;;;4.47;3.60;;;16.70;99.90;;;;;;5017244;28;20175;-81
2023/08/23 01:20:03;;;;;;;4.15;3.80;;;16.40;1.00;;;;;;5034952;28;20167;-80
2023/08/23 01:22:32;;;;;;;4.35;3.45;;;16.50;99.90;;;;;;5034697;28;20179;-80
2023/08/23 01:24:58;;;;;;;6.35;3.80;;;16.80;99.90;;;;;;5016716;28;20707;-80
2023/08/23 01:27:24;;;;;;;6.07;4.00;;;16.50;99.90;;;;;;5016951;28;20179;-80
2023/08/23 01:29:50;;;;;;;6.32;5.13;;;16.60;99.90;;;;;;5034526;28;20178;-81
2023/08/23 01:32:30;;;;;;;7.07;4.20;;;16.50;99.90;;;;;;5016851;28;20183;-80
2023/08/23 01:35:01;;;;;;;4.97;4.22;;;16.50;99.90;;;;;;5016651;28;20179;-80
2023/08/23 01:37:26;;;;;;;7.38;4.00;;;16.40;99.90;;;;;;5016530;28;20183;-80
2023/08/23 01:39:53;;;;;;;4.53;3.45;;;16.50;99.90;;;;;;5035181;28;20718;-79
2023/08/23 01:42:21;;;;;;;6.00;4.03;;;16.50;1.00;;;;;;5016718;28;20675;-80
2023/08/23 01:44:48;;;;;;;4.72;4.30;;;17.00;99.90;;;;;;5016707;28;20211;-80
2023/08/23 01:47:14;;;;;;;4.38;3.97;;;16.40;99.90;;;;;;5034434;28;20180;-81
2023/08/23 01:49:40;;;;;;;4.95;4.40;;;16.50;99.90;;;;;;5016534;28;20225;-81
2023/08/23 01:52:06;;;;;;;5.85;3.70;;;16.40;99.90;;;;;;5016666;28;20170;-80
2023/08/23 01:54:31;;;;;;;6.03;4.47;;;16.40;99.90;;;;;;5015727;28;20187;-81
2023/08/23 01:56:57;;;;;;;7.25;4.00;;;16.40;99.90;;;;;;5016411;28;20175;-80
2023/08/23 01:59:22;;;;;;;6.28;4.35;;;16.40;99.90;;;;;;5016452;28;20385;-81
2023/08/23 02:01:48;;;;;;;4.47;4.05;;;16.40;99.90;;;;;;5016475;28;20179;-82
2023/08/23 02:04:19;;;;;;;4.28;3.88;;;16.30;99.90;;;;;;5016349;28;20648;-81
2023/08/23 02:06:45;;;;;;;6.85;4.13;;;16.20;99.90;;;;;;5034227;28;20172;-79
2023/08/23 02:09:10;;;;;;;5.20;4.03;;;16.30;99.90;;;;;;5035174;28;20190;-80
2023/08/23 02:11:36;;;;;;;4.72;4.32;;;16.50;99.90;;;;;;5017162;28;20545;-81
2023/08/23 02:14:03;;;;;;;4.15;3.85;;;16.20;99.90;;;;;;5034441;28;20167;-81
2023/08/23 02:16:28;;;;;;;7.03;4.20;;;16.30;99.90;;;;;;5034272;28;20186;-80
2023/08/23 02:18:55;;;;;;;5.35;4.45;;;16.40;99.90;;;;;;5034288;28;20203;-80
2023/08/23 02:21:20;;;;;;;4.95;3.72;;;16.20;99.90;;;;;;5016614;28;20202;-80
2023/08/23 02:23:46;;;;;;;5.15;4.03;;;16.50;1.00;;;;;;5033876;28;20707;-81
2023/08/23 02:26:11;;;;;;;5.30;4.53;;;16.10;99.90;;;;;;5016496;28;20190;-81
2023/08/23 02:28:37;;;;;;;6.28;4.25;;;16.60;99.90;;;;;;5033836;28;20199;-79
2023/08/23 02:31:05;;;;;;;7.20;4.35;;;16.10;99.90;;;;;;5016329;28;20187;-81
2023/08/23 02:33:31;;;;;;;6.15;4.38;;;16.10;99.90;;;;;;5033744;28;20232;-82
2023/08/23 02:35:57;;;;;;;6.28;4.45;;;16.10;99.90;;;;;;5033920;28;20262;-81
2023/08/23 02:38:22;;;;;;;5.03;4.18;;;16.10;99.90;;;;;;5033778;28;20199;-80
2023/08/23 02:40:48;;;;;;;6.78;4.38;;;16.40;99.90;;;;;;5033592;28;20189;-80
2023/08/23 02:43:13;;;;;;;4.78;4.05;;;16.10;99.90;;;;;;5033660;28;20252;-81
2023/08/23 02:45:40;;;;;;;6.20;4.13;;;15.90;99.90;;;;;;5033422;28;20249;-80
2023/08/23 02:48:10;;;;;;;6.82;4.18;;;16.00;99.90;;;;;;5015807;28;20195;-80
2023/08/23 02:50:36;;;;;;;6.78;3.83;;;16.10;99.90;;;;;;5015930;28;20178;-80
2023/08/23 02:53:02;;;;;;;6.43;3.90;;;16.00;99.90;;;;;;5015676;28;20245;-81
2023/08/23 02:55:27;;;;;;;4.78;4.00;;;16.10;99.90;;;;;;5033269;28;20571;-81
2023/08/23 02:57:53;;;;;;;6.68;4.20;;;16.10;99.90;;;;;;5015608;28;20569;-80
2023/08/23 03:00:19;;;;;;;7.70;4.25;;;16.20;99.90;;;;;;5015960;28;20186;-80
2023/08/23 03:02:44;;;;;;;6.45;4.53;;;16.00;99.90;;;;;;5033193;28;20691;-80
2023/08/23 03:05:10;;;;;;;4.93;4.47;;;16.00;99.90;;;;;;5033017;28;20545;-79
2023/08/23 03:07:35;;;;;;;4.20;3.80;;;16.20;99.90;;;;;;5015110;28;20183;-79
2023/08/23 03:10:01;;;;;;;7.35;4.63;;;15.90;99.90;;;;;;5033554;28;20223;-80
2023/08/23 03:12:26;;;;;;;7.72;4.57;;;15.90;99.90;;;;;;5015719;28;20175;-80
2023/08/23 03:14:52;;;;;;;5.72;4.40;;;15.80;99.90;;;;;;5015309;28;20179;-80
2023/08/23 03:17:18;;;;;;;7.85;4.60;;;16.00;99.90;;;;;;5033124;28;20174;-80
2023/08/23 03:19:43;;;;;;;7.18;4.80;;;15.90;99.90;;;;;;5033031;28;20185;-79
2023/08/23 03:22:09;;;;;;;6.15;4.15;;;15.70;99.90;;;;;;5033344;28;20221;-80
2023/08/23 03:24:35;;;;;;;5.45;4.30;;;15.60;99.90;;;;;;5032978;28;20203;-80
2023/08/23 03:27:00;;;;;;;6.05;5.20;;;15.70;99.90;;;;;;5033069;28;20181;-80
2023/08/23 03:29:26;;;;;;;8.82;4.93;;;15.80;99.90;;;;;;5033095;28;20187;-80
2023/08/23 03:31:51;;;;;;;6.00;4.53;;;15.70;99.90;;;;;;5015497;28;20175;-80
2023/08/23 03:34:17;;;;;;;6.95;4.93;;;15.70;99.90;;;;;;5032855;28;20198;-80
2023/08/23 03:36:42;;;;;;;8.48;5.38;;;15.60;99.90;;;;;;5014870;28;20289;-80
2023/08/23 03:39:08;;;;;;;8.20;5.40;;;15.70;99.90;;;;;;5014838;28;20194;-79
2023/08/23 03:41:33;;;;;;;6.30;4.45;;;15.60;99.90;;;;;;5032608;28;20245;-80
2023/08/23 03:43:59;;;;;;;6.95;5.38;;;15.70;1.00;;;;;;5032432;28;20230;-80
2023/08/23 03:46:25;;;;;;;7.70;4.68;;;15.50;1.00;;;;;;5014517;28;20171;-80
2023/08/23 03:48:51;;;;;;;7.15;4.80;;;15.80;99.90;;;;;;5032438;28;20195;-80
2023/08/23 03:51:17;;;;;;;8.90;4.80;;;15.40;1.00;;;;;;5032768;28;20517;-81
2023/08/23 03:53:43;;;;;;;6.00;5.30;;;15.50;99.90;;;;;;5032651;28;20253;-81
2023/08/23 03:56:08;;;;;;;6.82;5.10;;;15.40;99.90;;;;;;5014914;28;20182;-80
2023/08/23 03:58:35;;;;;;;9.65;5.30;;;15.60;1.00;;;;;;5015057;28;20197;-78
2023/08/23 04:01:00;;;;;;;7.68;5.15;;;15.60;99.90;;;;;;5032702;28;20179;-82
2023/08/23 04:03:26;;;;;;;7.03;5.10;;;15.90;1.00;;;;;;5032593;28;20177;-80
2023/08/23 04:05:51;;;;;;;9.65;5.88;;;15.80;1.00;;;;;;5032231;28;20171;-79
2023/08/23 04:08:17;;;;;;;9.30;5.10;;;15.70;99.90;;;;;;5014925;28;20245;-80
2023/08/23 04:10:48;;;;;;;6.82;5.70;;;15.70;99.90;;;;;;5032538;28;20179;-80
2023/08/23 04:13:14;;;;;;;7.40;6.28;;;15.50;1.00;;;;;;5014425;28;20179;-80
2023/08/23 04:15:46;;;;;;;6.72;5.50;;;15.40;1.00;;;;;;5032285;28;20258;-79
2023/08/23 04:18:12;;;;;;;7.60;5.03;;;15.30;1.00;;;;;;5017081;28;20199;-80
2023/08/23 04:20:38;;;;;;;6.18;5.57;;;15.50;1.00;;;;;;5036200;28;20308;-80
2023/08/23 04:23:05;;;;;;;6.95;5.60;;;15.60;1.00;;;;;;5018153;28;20178;-79
2023/08/23 04:25:31;;;;;;;7.65;5.57;;;15.60;1.00;;;;;;5017864;28;20214;-80
2023/08/23 04:27:57;;;;;;;7.20;6.15;;;15.50;99.90;;;;;;5035900;28;20280;-78
2023/08/23 04:30:22;;;;;;;7.15;5.28;;;15.50;99.90;;;;;;5035854;28;20168;-80
2023/08/23 04:32:48;;;;;;;8.13;5.30;;;15.60;99.90;;;;;;5018110;28;20187;-79
2023/08/23 04:35:13;;;;;;;7.85;5.75;;;15.80;99.90;;;;;;5035912;28;20175;-80
2023/08/23 04:37:39;;;;;;;8.10;5.30;;;15.70;99.90;;;;;;5017888;28;20237;-79
2023/08/23 04:40:08;;;;;;;8.15;5.40;;;15.70;99.90;;;;;;5035686;28;20205;-80
2023/08/23 04:42:34;;;;;;;6.55;5.40;;;15.60;99.90;;;;;;5017759;28;20215;-80
2023/08/23 04:45:00;;;;;;;8.00;6.13;;;15.70;99.90;;;;;;5017390;28;20245;-79
2023/08/23 04:47:27;;;;;;;9.32;7.00;;;15.20;99.90;;;;;;5035365;28;20281;-79
2023/08/23 04:49:53;;;;;;;7.65;6.18;;;15.70;99.90;;;;;;5035652;28;20185;-79
2023/08/23 04:52:18;;;;;;;7.05;5.78;;;15.70;99.90;;;;;;5017973;28;20179;-80
2023/08/23 04:54:44;;;;;;;8.18;6.40;;;15.30;99.90;;;;;;5017834;28;20552;-80
2023/08/23 04:57:09;;;;;;;8.45;5.25;;;15.50;99.90;;;;;;5017495;28;20178;-79
2023/08/23 04:59:35;;;;;;;6.55;5.22;;;15.50;99.90;;;;;;5035235;28;20195;-80
2023/08/23 05:02:01;;;;;;;8.10;5.30;;;15.60;99.90;;;;;;5035205;28;20257;-80
2023/08/23 05:04:26;;;;;;;7.50;5.30;;;16.00;99.90;;;;;;5034849;28;20289;-80
2023/08/23 05:06:52;;;;;;;5.80;5.22;;;15.70;99.90;;;;;;5017285;28;20269;-78
2023/08/23 05:09:18;;;;;;;6.88;4.35;;;15.70;99.90;;;;;;5035167;28;20194;-81
2023/08/23 05:11:43;;;;;;;5.13;4.47;;;15.80;99.90;;;;;;5017395;28;20179;-80
2023/08/23 05:14:09;;;;;;;6.10;5.15;;;15.80;99.90;;;;;;5017238;28;20226;-79
2023/08/23 05:16:34;;;;;;;5.10;4.63;;;16.00;99.90;;;;;;5016940;28;20549;-80
2023/08/23 05:19:00;;;;;;;6.28;5.10;;;15.90;99.90;;;;;;5017229;28;20297;-81
2023/08/23 05:21:26;;;;;;;7.60;6.00;;;16.20;99.90;;;;;;5034893;28;20182;-79
2023/08/23 05:23:51;;;;;;;7.40;6.32;;;16.10;99.90;;;;;;5016798;28;20276;-81
2023/08/23 05:26:17;;;;;;;9.00;6.68;;;16.20;99.90;;;;;;5034442;28;20171;-79
2023/08/23 05:28:42;;;;;;;8.13;6.25;;;16.20;99.90;;;;;;5015964;28;20199;-80
2023/08/23 05:31:08;;;;;;;8.90;5.88;;;16.80;99.90;;;;;;5016963;28;20431;-81
2023/08/23 05:33:34;;;;;;;7.85;6.38;;;16.80;84.50;;;;;;5016790;28;20221;-81
2023/08/23 05:35:59;;;;;;;7.55;6.20;;;17.10;21.10;;;;;;5016463;28;20266;-81
2023/08/23 05:38:25;;;;;;;6.40;5.78;;;17.30;1.00;;;;;;5034325;28;20676;-81
2023/08/23 05:40:51;;;;;;;6.80;5.05;;;17.50;1.00;;;;;;5017000;28;20454;-80
2023/08/23 05:43:17;;;;;;;6.80;4.90;;;17.60;1.00;;;;;;5017048;28;20526;-80
2023/08/23 05:45:43;;;;;;;7.68;5.53;;;17.60;1.00;;;;;;5035103;28;20214;-81
2023/08/23 05:48:09;;;;;;;7.90;5.70;;;17.60;1.00;;;;;;5035081;28;20190;-81
2023/08/23 05:50:35;;;;;;;6.47;5.28;;;17.70;1.00;;;;;;5017009;28;20179;-80
2023/08/23 05:53:01;;;;;;;5.40;4.90;;;17.70;1.00;;;;;;5034881;28;20177;-80
2023/08/23 05:55:26;;;;;;;6.90;4.70;;;17.60;1.00;;;;;;5016806;28;20190;-81
2023/08/23 05:57:52;;;;;;;5.75;4.85;;;17.60;1.00;;;;;;5034961;28;20199;-80
2023/08/23 06:00:18;;;;;;;5.00;4.50;;;17.80;1.00;;;;;;5034459;28;20186;-80
2023/08/23 06:02:43;;;;;;;5.82;4.32;;;17.80;1.00;;;;;;5016321;28;20186;-81
2023/08/23 06:05:11;;;;;;;4.75;4.35;;;17.90;1.00;;;;;;5016621;28;20206;-79
2023/08/23 06:07:37;;;;;;;4.22;3.85;;;17.90;1.00;;;;;;5034216;28;20228;-80
2023/08/23 06:10:04;;;;;;;5.00;4.50;;;17.90;1.00;;;;;;5034125;28;20648;-80
2023/08/23 06:12:29;;;;;;;6.53;4.68;;;18.00;1.00;;;;;;5034300;28;20170;-80
2023/08/23 06:14:55;;;;;;;8.77;5.38;;;18.10;1.00;;;;;;5016438;28;20189;-80
2023/08/23 06:17:21;;;;;;;4.70;4.20;;;18.30;1.00;;;;;;5034736;28;20179;-80
2023/08/23 06:19:46;;;;;;;5.78;4.57;;;18.40;1.00;;;;;;5034208;28;20556;-81
2023/08/23 06:22:12;;;;;;;5.55;4.28;;;18.60;1.00;;;;;;5016627;28;20179;-80
2023/08/23 06:24:38;;;;;;;6.40;4.63;;;19.70;1.00;;;;;;5016057;28;20209;-80
2023/08/23 06:27:03;;;;;;;6.47;3.75;;;21.10;99.90;;;;;;5015950;28;20186;-81
2023/08/23 06:29:29;;;;;;;5.20;3.40;;;21.90;99.90;;;;;;5016200;28;20253;-81
2023/08/23 06:31:54;;;;;;;5.13;3.42;;;22.50;99.90;;;;;;5016131;28;20193;-80
2023/08/23 06:34:20;;;;;;;5.40;3.47;;;23.70;98.50;;;;;;5015909;28;20179;-81
2023/08/23 06:36:46;;;;;;;4.85;3.75;;;25.00;1.00;;;;;;5033788;28;20653;-81
2023/08/23 06:39:12;;;;;;;3.60;2.80;;;25.70;1.00;;;;;;5015848;28;20570;-82
2023/08/23 06:41:38;;;;;;;3.85;3.28;;;26.40;1.00;;;;;;5033381;28;20628;-80
2023/08/23 06:44:04;;;;;;;6.22;3.42;;;27.70;1.00;;;;;;5033382;28;20222;-81
2023/08/23 06:46:29;;;;;;;6.47;3.33;;;28.90;1.00;;;;;;5015633;28;20588;-81
2023/08/23 06:48:55;;;;;;;4.43;3.55;;;29.80;1.00;;;;;;5015717;28;20304;-80
2023/08/23 06:51:22;;;;;;;3.20;2.78;;;30.30;1.00;;;;;;5033908;28;20182;-81
2023/08/23 06:53:49;;;;;;;4.60;2.65;;;30.60;1.00;;;;;;5015610;28;20198;-81
2023/08/23 06:56:15;;;;;;;7.00;3.88;;;30.70;1.00;;;;;;5033113;28;20171;-81
2023/08/23 06:58:41;;;;;;;3.72;3.33;;;31.30;1.00;;;;;;5032808;28;20248;-80
2023/08/23 07:01:08;;;;;;;3.88;3.38;;;31.10;1.00;;;;;;5015252;28;20202;-80
2023/08/23 07:03:34;;;;;;;6.90;3.72;;;31.30;1.00;;;;;;5015092;28;20179;-81
2023/08/23 07:06:02;;;;;;;7.68;4.15;;;31.50;1.00;;;;;;5015215;28;20197;-81
2023/08/23 07:08:27;;;;;;;5.90;3.40;;;30.90;1.00;;;;;;5033273;28;20673;-80
2023/08/23 07:10:53;;;;;;;6.72;4.90;;;30.80;1.00;;;;;;5033072;28;20193;-80
2023/08/23 07:13:18;;;;;;;8.00;6.15;;;29.90;1.00;;;;;;5015312;28;20649;-80
2023/08/23 07:15:44;;;;;;;12.88;9.65;;;27.70;1.00;;;;;;5014959;28;20178;-80
2023/08/23 07:18:10;;;;;;;16.10;11.45;;;25.70;1.00;;;;;;5033148;28;20199;-81
2023/08/23 07:20:35;;;;;;;18.05;9.85;;;24.50;1.00;;;;;;5015251;28;20174;-81
2023/08/23 07:23:02;;;;;;;12.98;8.48;;;23.70;1.00;;;;;;5015063;28;20189;-81
2023/08/23 07:25:28;;;;;;;8.88;6.63;;;23.00;1.00;;;;;;5014927;28;20238;-81
2023/08/23 07:27:53;;;;;;;7.60;5.97;;;22.80;1.00;;;;;;5015303;28;20226;-80
2023/08/23 07:30:19;;;;;;;8.85;7.82;;;22.60;1.00;;;;;;5032602;28;20233;-81
2023/08/23 07:32:45;;;;;;;11.68;8.00;;;22.80;1.00;;;;;;5014854;28;20171;-80
2023/08/23 07:35:10;;;;;;;8.73;6.57;;;22.80;1.00;;;;;;5032769;28;20198;-81
2023/08/23 07:37:36;;;;;;;8.35;5.32;;;22.80;1.00;;;;;;5014706;28;20179;-81
2023/08/23 07:40:04;;;;;;;7.70;5.65;;;23.20;1.00;;;;;;5015121;28;20559;-81
2023/08/23 07:42:29;;;;;;;10.60;6.53;;;23.50;1.00;;;;;;5032105;28;20179;-80
2023/08/23 07:44:55;;;;;;;9.27;5.95;;;23.60;1.00;;;;;;5032185;28;20229;-81
2023/08/23 07:47:21;;;;;;;6.38;5.15;;;23.60;1.00;;;;;;5032248;28;20249;-81
2023/08/23 07:49:46;;;;;;;10.35;5.53;;;23.60;1.00;;;;;;5014660;28;20270;-81
2023/08/23 07:52:13;;;;;;;6.38;5.50;;;23.70;1.00;;;;;;5034663;28;20179;-81
2023/08/23 07:54:38;;;;;;;6.80;6.05;;;23.40;1.00;;;;;;5038751;28;20179;-80
2023/08/23 07:57:04;;;;;;;7.57;5.47;;;23.20;1.00;;;;;;5038532;28;20400;-80
2023/08/23 07:59:29;;;;;;;7.60;5.40;;;23.20;1.00;;;;;;5020834;28;20680;-80
2023/08/23 08:01:55;;;;;;;9.15;5.93;;;23.50;1.00;;;;;;5038868;28;20174;-80
2023/08/23 08:04:20;;;;;;;7.68;5.75;;;23.70;1.00;;;;;;5038617;28;20698;-81
2023/08/23 08:06:46;;;;;;;8.32;5.45;;;23.90;1.00;;;;;;5038494;28;20221;-80
2023/08/23 08:09:11;;;;;;;8.13;5.43;;;24.00;1.00;;;;;;5020834;28;20197;-81
2023/08/23 08:11:37;;;;;;;9.68;5.63;;;24.00;1.00;;;;;;5038578;28;20175;-80
2023/08/23 08:14:03;;;;;;;8.43;6.43;;;23.80;1.00;;;;;;5020644;28;20623;-81
2023/08/23 08:16:28;;;;;;;9.98;5.97;;;23.60;1.00;;;;;;5020842;28;20225;-81
2023/08/23 08:18:54;;;;;;;10.32;6.70;;;23.10;1.00;;;;;;5020726;28;20700;-81
2023/08/23 08:21:19;;;;;;;8.15;6.22;;;23.00;1.00;;;;;;5021185;28;20178;-80
2023/08/23 08:23:48;;;;;;;6.22;5.43;;;22.90;1.00;;;;;;5021117;28;20182;-81
2023/08/23 08:26:14;;;;;;;9.40;6.03;;;22.90;1.00;;;;;;5038815;28;20179;-81
2023/08/23 08:28:43;;;;;;;10.38;6.10;;;22.40;1.00;;;;;;5021326;28;20218;-80
2023/08/23 08:31:13;;;;;;;10.02;6.80;;;22.60;1.00;;;;;;5021533;28;20648;-81
2023/08/23 08:33:39;;;;;;;7.03;5.70;;;22.50;1.00;;;;;;5020966;28;20190;-80
2023/08/23 08:36:05;;;;;;;10.57;6.70;;;22.50;1.00;;;;;;5038645;28;20171;-80
2023/08/23 08:38:30;;;;;;;8.50;6.80;;;22.40;1.00;;;;;;5038771;28;20187;-81
2023/08/23 08:40:56;;;;;;;9.95;6.80;;;22.30;1.00;;;;;;5020955;28;20289;-81
2023/08/23 08:43:22;;;;;;;9.20;5.53;;;22.30;1.00;;;;;;5020796;28;20325;-81
2023/08/23 08:45:47;;;;;;;10.07;7.90;;;22.30;1.00;;;;;;5020774;28;20293;-81
2023/08/23 08:48:13;;;;;;;8.93;6.60;;;22.20;1.00;;;;;;5038456;28;20195;-80
2023/08/23 08:50:42;;;;;;;7.03;6.20;;;22.20;1.00;;;;;;5038513;28;20178;-81
2023/08/23 08:53:18;;;;;;;9.13;6.65;;;22.30;1.00;;;;;;5020528;28;20181;-80
2023/08/23 08:55:47;;;;;;;9.60;5.97;;;22.40;1.00;;;;;;5038417;28;20676;-81
2023/08/23 08:58:19;;;;;;;8.27;5.93;;;22.40;1.00;;;;;;5020748;28;20198;-81
2023/08/23 09:00:48;;;;;;;8.00;6.65;;;22.50;1.00;;;;;;5038647;28;20175;-81
2023/08/23 09:03:14;;;;;;;10.23;6.97;;;22.50;1.00;;;;;;5037587;28;20185;-80
2023/08/23 09:05:40;;;;;;;9.93;7.68;;;22.40;1.00;;;;;;5035255;28;20272;-81
2023/08/23 09:08:07;;;;;;;10.05;6.82;;;22.40;1.00;;;;;;5017457;28;20701;-80
2023/08/23 09:10:32;;;;;;;11.20;7.50;;;22.40;1.00;;;;;;5017337;28;20543;-81
2023/08/23 09:12:58;;;;;;;11.07;8.20;;;22.20;1.00;;;;;;5017313;28;20267;-80
2023/08/23 09:15:24;;;;;;;9.55;8.07;;;22.30;1.00;;;;;;5035289;28;20186;-81
2023/08/23 09:17:55;;;;;;;10.48;7.38;;;22.40;1.00;;;;;;5034817;28;20241;-81
2023/08/23 09:20:22;;;;;;;8.93;6.78;;;22.50;1.00;;;;;;5017237;28;20558;-80
2023/08/23 09:22:52;;;;;;;6.95;6.28;;;22.60;1.00;;;;;;5035012;28;20575;-81
2023/08/23 09:25:17;;;;;;;8.60;7.25;;;22.70;1.00;;;;;;5017129;28;20597;-81
2023/08/23 09:27:43;;;;;;;9.07;7.75;;;22.60;1.00;;;;;;5034780;28;20198;-81
2023/08/23 09:30:09;;;;;;;8.98;7.00;;;22.70;1.00;;;;;;5034765;28;20175;-81
2023/08/23 09:32:35;;;;;;;10.60;7.30;;;22.60;1.00;;;;;;5017148;28;20171;-80
2023/08/23 09:35:10;;;;;;;9.77;7.68;;;22.50;1.00;;;;;;5016824;28;20207;-81
2023/08/23 09:37:39;;;;;;;7.88;6.00;;;22.50;1.00;;;;;;5034862;28;20174;-81
2023/08/23 09:40:05;;;;;;;8.65;6.50;;;22.60;1.00;;;;;;5016863;28;20231;-81
2023/08/23 09:42:33;;;;;;;7.60;5.15;;;22.80;1.00;;;;;;5034607;28;20676;-81
2023/08/23 09:45:01;;;;;;;8.65;5.97;;;22.90;1.00;;;;;;5016844;28;20203;-81
2023/08/23 09:47:32;;;;;;;7.18;6.30;;;23.10;1.00;;;;;;5016579;28;20175;-81
2023/08/23 09:50:00;;;;;;;9.02;5.95;;;23.20;1.00;;;;;;5034506;28;20558;-81
2023/08/23 09:52:30;;;;;;;8.18;5.93;;;23.20;1.00;;;;;;5016620;28;20179;-81
2023/08/23 09:55:14;;;;;;;8.50;6.90;;;23.20;1.00;;;;;;5016552;28;20551;-81
2023/08/23 09:57:41;;;;;;;8.20;5.68;;;23.20;1.00;;;;;;5034522;28;20195;-81
2023/08/23 10:00:09;;;;;;;7.30;6.32;;;23.20;1.00;;;;;;5016441;28;20550;-81
2023/08/23 10:02:36;;;;;;;5.80;5.20;;;23.20;1.00;;;;;;5016334;28;20582;-81
2023/08/23 10:05:06;;;;;;;7.38;6.53;;;23.30;1.00;;;;;;5016440;28;20578;-81
2023/08/23 10:07:35;;;;;;;8.32;7.32;;;23.40;1.00;;;;;;5034357;28;20241;-80
2023/08/23 10:10:01;;;;;;;8.23;7.13;;;23.40;1.00;;;;;;5034122;28;20266;-81
2023/08/23 10:12:28;;;;;;;9.13;8.10;;;23.30;1.00;;;;;;5016411;28;20590;-81
2023/08/23 10:14:56;;;;;;;7.47;6.60;;;23.30;1.00;;;;;;5034626;28;20194;-81
2023/08/23 10:17:23;;;;;;;11.32;9.02;;;23.30;1.00;;;;;;5035555;28;20174;-81
2023/08/23 10:19:52;;;;;;;8.32;7.47;;;23.50;1.00;;;;;;5016320;28;20189;-81
2023/08/23 10:22:18;;;;;;;8.77;7.75;;;23.50;1.00;;;;;;5016785;28;20183;-83
2023/08/23 10:24:48;;;;;;;7.60;6.70;;;23.40;1.00;;;;;;5035099;28;20202;-81
2023/08/23 10:27:15;;;;;;;7.45;6.75;;;23.50;1.00;;;;;;5033853;28;20664;-81
2023/08/23 10:29:40;;;;;;;7.70;6.40;;;23.70;1.00;;;;;;5016466;28;20294;-81
2023/08/23 10:32:11;;;;;;;8.80;5.40;;;23.90;1.00;;;;;;5034785;28;20261;-81
2023/08/23 10:34:38;;;;;;;7.05;5.05;;;24.00;1.00;;;;;;5017169;28;20179;-82
2023/08/23 10:37:15;;;;;;;6.70;4.93;;;24.00;1.00;;;;;;5034292;28;20198;-80
2023/08/23 10:39:53;;;;;;;6.43;5.30;;;23.90;1.00;;;;;;5034024;28;20191;-81
2023/08/23 10:42:22;;;;;;;5.68;4.68;;;23.70;1.00;;;;;;5033595;28;20174;-81
2023/08/23 10:44:56;;;;;;;6.93;4.75;;;23.80;1.00;;;;;;5033484;28;20217;-81
2023/08/23 10:47:23;;;;;;;5.10;4.30;;;23.70;1.00;;;;;;5015880;28;20296;-81
2023/08/23 10:49:50;;;;;;;6.97;5.40;;;23.70;1.00;;;;;;5034626;28;20237;-81
2023/08/23 10:52:15;;;;;;;6.13;4.10;;;23.70;1.00;;;;;;5015709;28;20179;-81
2023/08/23 10:54:41;;;;;;;5.57;3.90;;;23.70;1.00;;;;;;5015479;28;20266;-80
2023/08/23 10:57:08;;;;;;;6.32;4.40;;;23.80;1.00;;;;;;5015360;28;20209;-81
2023/08/23 10:59:34;;;;;;;5.40;4.00;;;23.90;1.00;;;;;;5015434;28;20209;-81
2023/08/23 11:02:00;;;;;;;4.75;3.65;;;23.90;1.00;;;;;;5016110;28;20555;-81
2023/08/23 11:04:26;;;;;;;5.57;3.80;;;23.80;1.00;;;;;;5033275;28;20202;-81
2023/08/23 11:06:51;;;;;;;5.40;2.97;;;23.90;1.00;;;;;;5033069;28;20175;-81
2023/08/23 11:09:18;;;;;;;4.18;3.03;;;24.10;1.00;;;;;;5033442;28;20191;-81
2023/08/23 11:11:43;;;;;;;4.07;3.00;;;24.00;1.00;;;;;;5015288;28;20175;-81
2023/08/23 11:14:09;;;;;;;3.97;3.08;;;23.90;1.00;;;;;;5014905;28;20181;-80
2023/08/23 11:16:35;;;;;;;4.15;2.83;;;23.90;1.00;;;;;;5032614;28;20182;-81
2023/08/23 11:19:05;;;;;;;5.25;2.95;;;23.90;1.00;;;;;;5014790;28;20677;-82
2023/08/23 11:21:32;;;;;;;4.53;2.58;;;23.80;1.00;;;;;;5032259;28;20706;-81
2023/08/23 11:24:01;;;;;;;4.13;3.10;;;23.70;1.00;;;;;;5032463;28;20629;-82
2023/08/23 11:26:26;;;;;;;3.63;3.03;;;23.80;1.00;;;;;;5031789;28;20641;-81
2023/08/23 11:28:52;;;;;;;2.88;2.60;;;24.00;1.00;;;;;;5014739;28;20197;-80
2023/08/23 11:31:17;;;;;;;4.85;3.50;;;24.30;1.00;;;;;;5032961;28;20671;-80
2023/08/23 11:33:44;;;;;;;5.07;3.30;;;24.50;1.00;;;;;;5015081;28;20237;-81
2023/08/23 11:36:10;;;;;;;6.70;3.35;;;24.50;1.00;;;;;;5014894;28;20175;-81
2023/08/23 11:38:35;;;;;;;3.80;3.40;;;24.60;1.00;;;;;;5015006;28;20286;-81
2023/08/23 11:41:01;;;;;;;3.53;2.40;;;24.60;1.00;;;;;;5015015;28;20195;-82
2023/08/23 11:43:28;;;;;;;4.95;2.60;;;24.60;1.00;;;;;;5032485;28;20185;-81
2023/08/23 11:45:54;;;;;;;5.20;2.80;;;24.80;1.00;;;;;;5014679;28;20215;-81
2023/08/23 11:48:23;;;;;;;4.22;2.20;;;24.80;1.00;;;;;;5014542;28;20190;-81
2023/08/23 11:50:50;;;;;;;4.55;2.20;;;24.90;1.00;;;;;;5032439;28;20175;-81
2023/08/23 11:53:15;;;;;;;3.13;2.20;;;25.10;1.00;;;;;;5032343;28;20167;-82
2023/08/23 11:55:41;;;;;;;3.80;2.30;;;25.10;1.00;;;;;;5032028;28;20551;-81
2023/08/23 11:58:06;;;;;;;5.45;2.10;;;24.90;1.00;;;;;;5014680;28;20257;-81
2023/08/23 12:00:33;;;;;;;5.07;2.60;;;24.90;1.00;;;;;;5014726;28;20179;-82
2023/08/23 12:02:59;;;;;;;3.70;2.42;;;24.60;1.00;;;;;;5032159;28;20177;-81
2023/08/23 12:05:25;;;;;;;5.32;2.28;;;24.60;1.00;;;;;;5014613;28;20210;-81
2023/08/23 12:07:51;;;;;;;2.72;2.13;;;24.70;1.00;;;;;;5014380;28;20199;-81
2023/08/23 12:10:16;;;;;;;3.30;2.13;;;24.70;1.00;;;;;;5032300;28;20163;-81
2023/08/23 12:12:42;;;;;;;4.22;2.30;;;24.80;1.00;;;;;;5014273;28;20175;-81
2023/08/23 12:15:08;;;;;;;2.30;1.90;;;24.70;1.00;;;;;;5014262;28;20270;-81
2023/08/23 12:17:34;;;;;;;4.28;1.85;;;24.60;1.00;;;;;;5014273;28;20236;-81
2023/08/23 12:20:00;;;;;;;4.40;1.98;;;24.50;1.00;;;;;;5014625;28;20178;-81
2023/08/23 12:22:25;;;;;;;5.10;2.17;;;24.40;1.00;;;;;;5014140;28;20522;-81
2023/08/23 12:24:51;;;;;;;4.63;1.90;;;24.40;1.00;;;;;;5014159;28;20357;-81
2023/08/23 12:27:17;;;;;;;3.80;2.20;;;24.50;1.00;;;;;;5032078;28;20638;-80
2023/08/23 12:29:43;;;;;;;7.75;2.05;;;24.50;1.00;;;;;;5032075;28;20199;-81
2023/08/23 12:32:08;;;;;;;4.15;1.90;;;24.50;1.00;;;;;;5014344;28;20612;-81
2023/08/23 12:34:34;;;;;;;2.72;1.92;;;24.50;1.00;;;;;;5032035;28;20218;-80
2023/08/23 12:37:00;;;;;;;2.92;1.85;;;24.70;1.00;;;;;;5032114;28;20198;-81
2023/08/23 12:39:27;;;;;;;3.17;2.30;;;24.80;1.00;;;;;;5016725;28;20672;-80
2023/08/23 12:41:52;;;;;;;3.38;1.90;;;25.00;1.00;;;;;;5035864;28;20178;-81
2023/08/23 12:44:18;;;;;;;2.95;2.30;;;25.10;1.00;;;;;;5018037;28;20198;-81
2023/08/23 12:46:44;;;;;;;2.95;2.10;;;25.10;1.00;;;;;;5017610;28;20190;-81
2023/08/23 12:49:12;;;;;;;3.75;1.60;;;25.30;1.00;;;;;;5017681;28;20198;-81